sensor_id;sensor_type;location;lat;lon;timestamp;pressure;altitude;pressure_sealevel;temperature;humidity
51297;BME280;37380;45.186;9.792;2023-04-03T00:00:13;100744.78;;;10.37;100.00
51297;BME280;37380;45.186;9.792;2023-04-03T00:02:40;100681.56;;;9.99;100.00
51297;BME280;37380;45.186;9.792;2023-04-03T00:05:07;100753.88;;;10.48;100.00
51297;BME280;37380;45.186;9.792;2023-04-03T00:07:35;100782.66;;;10.50;100.00
51297;BME280;37380;45.186;9.792;2023-04-03T00:10:02;100700.72;;;9.75;100.00
51297;BME280;37380;45.186;9.792;2023-04-03T00:12:29;100668.84;;;9.60;100.00
51297;BME280;37380;45.186;9.792;2023-04-03T00:14:56;100753.97;;;9.81;100.00
51297;BME280;37380;45.186;9.792;2023-04-03T00:17:23;100686.97;;;9.57;100.00
51297;BME280;37380;45.186;9.792;2023-04-03T00:19:50;100703.19;;;9.50;100.00
51297;BME280;37380;45.186;9.792;2023-04-03T00:22:17;100704.84;;;9.48;100.00
51297;BME280;37380;45.186;9.792;2023-04-03T00:24:44;100764.41;;;9.81;100.00
51297;BME280;37380;45.186;9.792;2023-04-03T00:27:11;100709.94;;;9.45;100.00
51297;BME280;37380;45.186;9.792;2023-04-03T00:29:38;100767.13;;;9.84;100.00
51297;BME280;37380;45.186;9.792;2023-04-03T00:32:05;100722.59;;;9.34;100.00
51297;BME280;37380;45.186;9.792;2023-04-03T00:34:33;100775.94;;;9.65;100.00
51297;BME280;37380;45.186;9.792;2023-04-03T00:37:00;100710.44;;;9.35;100.00
51297;BME280;37380;45.186;9.792;2023-04-03T00:39:27;100730.84;;;9.24;100.00
51297;BME280;37380;45.186;9.792;2023-04-03T00:41:54;100705.19;;;8.91;100.00
51297;BME280;37380;45.186;9.792;2023-04-03T00:46:55;100712.69;;;9.04;100.00
51297;BME280;37380;45.186;9.792;2023-04-03T00:49:22;100685.44;;;8.96;100.00
51297;BME280;37380;45.186;9.792;2023-04-03T00:51:49;100677.66;;;8.98;100.00
51297;BME280;37380;45.186;9.792;2023-04-03T00:54:25;100768.03;;;9.41;100.00
51297;BME280;37380;45.186;9.792;2023-04-03T00:57:27;100676.97;;;8.60;100.00
51297;BME280;37380;45.186;9.792;2023-04-03T01:00:22;100780.19;;;8.98;100.00
51297;BME280;37380;45.186;9.792;2023-04-03T01:02:51;100766.59;;;9.05;100.00
51297;BME280;37380;45.186;9.792;2023-04-03T01:05:19;100743.91;;;9.03;100.00
51297;BME280;37380;45.186;9.792;2023-04-03T01:07:49;100770.91;;;9.26;100.00
51297;BME280;37380;45.186;9.792;2023-04-03T01:10:17;100775.00;;;9.19;100.00
51297;BME280;37380;45.186;9.792;2023-04-03T01:13:26;100742.72;;;8.75;100.00
51297;BME280;37380;45.186;9.792;2023-04-03T01:16:07;100680.28;;;8.36;100.00
51297;BME280;37380;45.186;9.792;2023-04-03T01:18:37;100765.38;;;8.97;100.00
51297;BME280;37380;45.186;9.792;2023-04-03T01:24:32;100755.22;;;9.03;100.00
51297;BME280;37380;45.186;9.792;2023-04-03T01:27:04;100775.50;;;9.11;100.00
51297;BME280;37380;45.186;9.792;2023-04-03T01:29:32;100646.09;;;7.88;100.00
51297;BME280;37380;45.186;9.792;2023-04-03T01:32:01;100780.44;;;8.83;100.00
51297;BME280;37380;45.186;9.792;2023-04-03T01:34:29;100737.31;;;8.50;100.00
51297;BME280;37380;45.186;9.792;2023-04-03T01:36:57;100677.88;;;8.01;100.00
51297;BME280;37380;45.186;9.792;2023-04-03T01:39:24;100714.56;;;8.26;100.00
51297;BME280;37380;45.186;9.792;2023-04-03T01:41:52;100750.44;;;8.33;100.00
51297;BME280;37380;45.186;9.792;2023-04-03T01:44:32;100766.59;;;8.44;100.00
51297;BME280;37380;45.186;9.792;2023-04-03T01:46:59;100770.59;;;8.57;100.00
51297;BME280;37380;45.186;9.792;2023-04-03T01:49:28;100754.72;;;8.51;100.00
51297;BME280;37380;45.186;9.792;2023-04-03T01:51:56;100724.63;;;7.99;100.00
51297;BME280;37380;45.186;9.792;2023-04-03T01:54:29;100749.06;;;8.03;100.00
51297;BME280;37380;45.186;9.792;2023-04-03T01:57:24;100717.28;;;7.90;100.00
51297;BME280;37380;45.186;9.792;2023-04-03T01:59:52;100737.09;;;8.06;100.00
51297;BME280;37380;45.186;9.792;2023-04-03T02:02:19;100751.81;;;8.25;100.00
51297;BME280;37380;45.186;9.792;2023-04-03T02:04:47;100727.53;;;7.87;100.00
51297;BME280;37380;45.186;9.792;2023-04-03T02:07:14;100681.53;;;7.67;100.00
51297;BME280;37380;45.186;9.792;2023-04-03T02:09:41;100594.22;;;6.78;100.00
51297;BME280;37380;45.186;9.792;2023-04-03T02:12:08;100661.66;;;7.30;100.00
51297;BME280;37380;45.186;9.792;2023-04-03T02:14:35;100723.56;;;7.76;100.00
51297;BME280;37380;45.186;9.792;2023-04-03T02:17:02;100709.75;;;7.77;100.00
51297;BME280;37380;45.186;9.792;2023-04-03T02:19:31;100745.75;;;7.87;100.00
51297;BME280;37380;45.186;9.792;2023-04-03T02:21:58;100712.06;;;7.71;100.00
51297;BME280;37380;45.186;9.792;2023-04-03T02:24:25;100665.22;;;7.52;100.00
51297;BME280;37380;45.186;9.792;2023-04-03T02:26:53;100725.63;;;7.83;100.00
51297;BME280;37380;45.186;9.792;2023-04-03T02:29:20;100640.47;;;7.60;100.00
51297;BME280;37380;45.186;9.792;2023-04-03T02:31:47;100622.94;;;7.56;100.00
51297;BME280;37380;45.186;9.792;2023-04-03T02:34:14;100685.66;;;8.01;100.00
51297;BME280;37380;45.186;9.792;2023-04-03T02:36:42;100668.88;;;7.94;100.00
51297;BME280;37380;45.186;9.792;2023-04-03T02:39:10;100730.09;;;8.25;100.00
51297;BME280;37380;45.186;9.792;2023-04-03T02:41:38;100728.94;;;8.18;100.00
51297;BME280;37380;45.186;9.792;2023-04-03T02:44:11;100715.81;;;8.15;100.00
51297;BME280;37380;45.186;9.792;2023-04-03T02:46:38;100698.94;;;8.07;100.00
51297;BME280;37380;45.186;9.792;2023-04-03T02:49:06;100638.16;;;7.66;100.00
51297;BME280;37380;45.186;9.792;2023-04-03T02:51:33;100695.22;;;7.82;100.00
51297;BME280;37380;45.186;9.792;2023-04-03T02:54:07;100726.63;;;7.85;100.00
51297;BME280;37380;45.186;9.792;2023-04-03T02:57:08;100703.81;;;7.62;100.00
51297;BME280;37380;45.186;9.792;2023-04-03T03:00:03;100719.84;;;7.89;100.00
51297;BME280;37380;45.186;9.792;2023-04-03T03:02:30;100743.72;;;8.00;100.00
51297;BME280;37380;45.186;9.792;2023-04-03T03:04:57;100655.03;;;7.37;100.00
51297;BME280;37380;45.186;9.792;2023-04-03T03:07:24;100734.88;;;7.96;100.00
51297;BME280;37380;45.186;9.792;2023-04-03T03:09:51;100701.44;;;7.66;100.00
51297;BME280;37380;45.186;9.792;2023-04-03T03:12:18;100709.41;;;7.69;100.00
51297;BME280;37380;45.186;9.792;2023-04-03T03:14:49;100668.34;;;7.44;100.00
51297;BME280;37380;45.186;9.792;2023-04-03T03:17:16;100707.72;;;7.52;100.00
51297;BME280;37380;45.186;9.792;2023-04-03T03:19:44;100731.78;;;7.66;100.00
51297;BME280;37380;45.186;9.792;2023-04-03T03:22:12;100708.41;;;7.48;100.00
51297;BME280;37380;45.186;9.792;2023-04-03T03:24:39;100678.59;;;7.41;100.00
51297;BME280;37380;45.186;9.792;2023-04-03T03:27:06;100658.69;;;7.05;100.00
51297;BME280;37380;45.186;9.792;2023-04-03T03:29:33;100716.25;;;7.49;100.00
51297;BME280;37380;45.186;9.792;2023-04-03T03:32:02;100644.34;;;6.95;100.00
51297;BME280;37380;45.186;9.792;2023-04-03T03:34:30;100678.66;;;6.88;100.00
51297;BME280;37380;45.186;9.792;2023-04-03T03:36:57;100692.91;;;6.96;100.00
51297;BME280;37380;45.186;9.792;2023-04-03T03:39:24;100645.72;;;6.87;100.00
51297;BME280;37380;45.186;9.792;2023-04-03T03:41:51;100636.94;;;7.02;100.00
51297;BME280;37380;45.186;9.792;2023-04-03T03:44:20;100728.38;;;7.49;100.00
51297;BME280;37380;45.186;9.792;2023-04-03T03:46:47;100618.66;;;7.01;100.00
51297;BME280;37380;45.186;9.792;2023-04-03T03:49:15;100708.00;;;7.58;100.00
51297;BME280;37380;45.186;9.792;2023-04-03T03:51:42;100704.75;;;7.44;100.00
51297;BME280;37380;45.186;9.792;2023-04-03T03:54:15;100715.28;;;7.47;100.00
51297;BME280;37380;45.186;9.792;2023-04-03T03:57:09;100706.16;;;7.38;100.00
51297;BME280;37380;45.186;9.792;2023-04-03T03:59:37;100633.50;;;7.03;100.00
51297;BME280;37380;45.186;9.792;2023-04-03T04:02:04;100727.19;;;7.42;100.00
51297;BME280;37380;45.186;9.792;2023-04-03T04:04:32;100670.56;;;6.99;100.00
51297;BME280;37380;45.186;9.792;2023-04-03T04:06:59;100680.13;;;7.00;100.00
51297;BME280;37380;45.186;9.792;2023-04-03T04:09:27;100670.13;;;6.90;100.00
51297;BME280;37380;45.186;9.792;2023-04-03T04:11:55;100665.66;;;6.70;100.00
51297;BME280;37380;45.186;9.792;2023-04-03T04:14:22;100697.88;;;6.91;100.00
51297;BME280;37380;45.186;9.792;2023-04-03T04:16:50;100664.13;;;6.57;100.00
51297;BME280;37380;45.186;9.792;2023-04-03T04:19:22;100721.69;;;7.00;100.00
51297;BME280;37380;45.186;9.792;2023-04-03T04:21:49;100724.09;;;6.96;100.00
51297;BME280;37380;45.186;9.792;2023-04-03T04:24:17;100717.53;;;6.86;100.00
51297;BME280;37380;45.186;9.792;2023-04-03T04:26:45;100694.22;;;6.70;100.00
51297;BME280;37380;45.186;9.792;2023-04-03T04:29:14;100619.66;;;6.15;100.00
51297;BME280;37380;45.186;9.792;2023-04-03T04:31:43;100758.66;;;6.95;100.00
51297;BME280;37380;45.186;9.792;2023-04-03T04:34:10;100712.56;;;6.73;100.00
51297;BME280;37380;45.186;9.792;2023-04-03T04:36:39;100721.06;;;6.70;100.00
51297;BME280;37380;45.186;9.792;2023-04-03T04:39:07;100746.91;;;6.85;100.00
51297;BME280;37380;45.186;9.792;2023-04-03T04:41:34;100660.91;;;6.27;100.00
51297;BME280;37380;45.186;9.792;2023-04-03T04:44:03;100717.88;;;6.42;100.00
51297;BME280;37380;45.186;9.792;2023-04-03T04:46:31;100722.66;;;6.50;100.00
51297;BME280;37380;45.186;9.792;2023-04-03T04:48:59;100634.41;;;5.67;100.00
51297;BME280;37380;45.186;9.792;2023-04-03T04:51:29;100726.38;;;6.55;100.00
51297;BME280;37380;45.186;9.792;2023-04-03T04:54:22;100672.34;;;6.48;100.00
51297;BME280;37380;45.186;9.792;2023-04-03T04:57:23;100725.13;;;6.99;100.00
51297;BME280;37380;45.186;9.792;2023-04-03T05:00:18;100712.72;;;6.94;100.00
51297;BME280;37380;45.186;9.792;2023-04-03T05:02:45;100693.91;;;6.64;100.00
51297;BME280;37380;45.186;9.792;2023-04-03T05:05:13;100684.13;;;6.76;100.00
51297;BME280;37380;45.186;9.792;2023-04-03T05:07:40;100758.78;;;6.80;100.00
51297;BME280;37380;45.186;9.792;2023-04-03T05:10:09;100770.53;;;6.90;100.00
51297;BME280;37380;45.186;9.792;2023-04-03T05:12:44;100719.91;;;6.82;100.00
51297;BME280;37380;45.186;9.792;2023-04-03T05:15:46;100770.41;;;7.22;100.00
51297;BME280;37380;45.186;9.792;2023-04-03T05:18:47;100713.97;;;7.20;100.00
51297;BME280;37380;45.186;9.792;2023-04-03T05:21:30;100708.94;;;7.98;100.00
51297;BME280;37380;45.186;9.792;2023-04-03T05:24:03;100704.56;;;8.35;100.00
51297;BME280;37380;45.186;9.792;2023-04-03T05:26:33;100708.47;;;8.66;100.00
51297;BME280;37380;45.186;9.792;2023-04-03T05:29:01;100675.72;;;8.71;100.00
51297;BME280;37380;45.186;9.792;2023-04-03T05:31:29;100760.84;;;9.35;100.00
51297;BME280;37380;45.186;9.792;2023-04-03T05:33:57;100783.78;;;9.87;100.00
51297;BME280;37380;45.186;9.792;2023-04-03T05:36:26;100718.25;;;9.35;100.00
51297;BME280;37380;45.186;9.792;2023-04-03T05:39:05;100695.16;;;9.66;100.00
51297;BME280;37380;45.186;9.792;2023-04-03T05:42:00;100732.16;;;10.03;100.00
51297;BME280;37380;45.186;9.792;2023-04-03T05:44:55;100794.91;;;11.26;100.00
51297;BME280;37380;45.186;9.792;2023-04-03T05:47:22;100773.34;;;11.87;100.00
51297;BME280;37380;45.186;9.792;2023-04-03T05:49:49;100777.78;;;12.20;100.00
51297;BME280;37380;45.186;9.792;2023-04-03T05:52:28;100744.53;;;12.17;100.00
51297;BME280;37380;45.186;9.792;2023-04-03T05:55:03;100743.22;;;12.65;100.00
51297;BME280;37380;45.186;9.792;2023-04-03T05:58:04;100788.72;;;12.65;100.00
51297;BME280;37380;45.186;9.792;2023-04-03T06:01:06;100775.75;;;11.27;100.00
51297;BME280;37380;45.186;9.792;2023-04-03T06:04:03;100785.50;;;10.80;100.00
51297;BME280;37380;45.186;9.792;2023-04-03T06:06:57;100802.06;;;10.56;100.00
51297;BME280;37380;45.186;9.792;2023-04-03T06:09:26;100763.06;;;10.14;100.00
51297;BME280;37380;45.186;9.792;2023-04-03T06:11:57;100792.16;;;10.01;100.00
51297;BME280;37380;45.186;9.792;2023-04-03T06:14:28;100774.97;;;9.84;100.00
51297;BME280;37380;45.186;9.792;2023-04-03T06:16:55;100742.75;;;9.61;100.00
51297;BME280;37380;45.186;9.792;2023-04-03T06:19:23;100805.56;;;9.88;100.00
51297;BME280;37380;45.186;9.792;2023-04-03T06:21:54;100811.66;;;9.88;100.00
51297;BME280;37380;45.186;9.792;2023-04-03T06:24:23;100793.19;;;10.51;100.00
51297;BME280;37380;45.186;9.792;2023-04-03T06:26:52;100772.28;;;11.82;100.00
51297;BME280;37380;45.186;9.792;2023-04-03T06:29:19;100782.69;;;13.03;100.00
51297;BME280;37380;45.186;9.792;2023-04-03T06:31:48;100802.97;;;14.19;100.00
51297;BME280;37380;45.186;9.792;2023-04-03T06:34:15;100693.97;;;14.00;99.14
51297;BME280;37380;45.186;9.792;2023-04-03T06:36:42;100743.25;;;13.71;100.00
51297;BME280;37380;45.186;9.792;2023-04-03T06:39:15;100797.97;;;14.72;100.00
51297;BME280;37380;45.186;9.792;2023-04-03T06:41:49;100781.00;;;15.56;95.29
51297;BME280;37380;45.186;9.792;2023-04-03T06:44:51;100784.94;;;15.83;90.21
51297;BME280;37380;45.186;9.792;2023-04-03T06:47:18;100821.22;;;16.71;86.88
51297;BME280;37380;45.186;9.792;2023-04-03T06:49:45;100741.75;;;15.15;93.38
51297;BME280;37380;45.186;9.792;2023-04-03T06:52:18;100782.63;;;15.48;92.31
51297;BME280;37380;45.186;9.792;2023-04-03T06:55:19;100785.09;;;16.64;88.34
51297;BME280;37380;45.186;9.792;2023-04-03T06:58:14;100774.91;;;15.60;93.78
51297;BME280;37380;45.186;9.792;2023-04-03T07:00:48;100837.41;;;14.31;98.42
51297;BME280;37380;45.186;9.792;2023-04-03T07:03:49;100793.25;;;15.54;88.83
51297;BME280;37380;45.186;9.792;2023-04-03T07:06:44;100821.28;;;14.99;95.23
51297;BME280;37380;45.186;9.792;2023-04-03T07:09:11;100733.03;;;14.69;96.62
51297;BME280;37380;45.186;9.792;2023-04-03T07:11:38;100834.44;;;16.05;91.86
51297;BME280;37380;45.186;9.792;2023-04-03T07:14:11;100814.03;;;15.91;94.49
51297;BME280;37380;45.186;9.792;2023-04-03T07:17:06;100815.97;;;15.48;95.53
51297;BME280;37380;45.186;9.792;2023-04-03T07:19:32;100782.69;;;15.51;96.95
51297;BME280;37380;45.186;9.792;2023-04-03T07:21:59;100830.59;;;14.83;100.00
51297;BME280;37380;45.186;9.792;2023-04-03T07:24:26;100806.47;;;16.17;94.07
51297;BME280;37380;45.186;9.792;2023-04-03T07:26:53;100728.16;;;14.89;97.33
51297;BME280;37380;45.186;9.792;2023-04-03T07:29:20;100787.28;;;15.11;100.00
51297;BME280;37380;45.186;9.792;2023-04-03T07:31:48;100784.38;;;15.49;98.55
51297;BME280;37380;45.186;9.792;2023-04-03T07:34:16;100844.06;;;15.49;95.73
51297;BME280;37380;45.186;9.792;2023-04-03T07:36:43;100815.44;;;16.28;91.92
51297;BME280;37380;45.186;9.792;2023-04-03T07:39:10;100735.66;;;16.46;88.36
51297;BME280;37380;45.186;9.792;2023-04-03T07:41:44;100820.19;;;16.57;89.10
51297;BME280;37380;45.186;9.792;2023-04-03T07:44:46;100802.31;;;16.33;89.44
51297;BME280;37380;45.186;9.792;2023-04-03T07:47:40;100815.72;;;16.51;88.16
51297;BME280;37380;45.186;9.792;2023-04-03T07:50:07;100747.47;;;15.46;90.98
51297;BME280;37380;45.186;9.792;2023-04-03T07:52:34;100824.38;;;15.78;92.94
51297;BME280;37380;45.186;9.792;2023-04-03T07:55:08;100823.03;;;16.05;90.94
51297;BME280;37380;45.186;9.792;2023-04-03T07:57:55;100812.03;;;15.23;97.83
51297;BME280;37380;45.186;9.792;2023-04-03T08:00:22;100795.81;;;14.98;100.00
51297;BME280;37380;45.186;9.792;2023-04-03T08:02:49;100788.50;;;15.30;98.04
51297;BME280;37380;45.186;9.792;2023-04-03T08:05:19;100827.50;;;15.04;100.00
51297;BME280;37380;45.186;9.792;2023-04-03T08:07:46;100759.63;;;15.38;96.78
51297;BME280;37380;45.186;9.792;2023-04-03T08:10:14;100829.50;;;16.28;93.90
51297;BME280;37380;45.186;9.792;2023-04-03T08:12:41;100763.75;;;15.75;95.84
51297;BME280;37380;45.186;9.792;2023-04-03T08:15:09;100763.97;;;15.91;93.47
51297;BME280;37380;45.186;9.792;2023-04-03T08:17:36;100800.19;;;16.05;94.12
51297;BME280;37380;45.186;9.792;2023-04-03T08:20:07;100792.84;;;15.83;94.95
51297;BME280;37380;45.186;9.792;2023-04-03T08:22:34;100794.47;;;16.39;92.02
51297;BME280;37380;45.186;9.792;2023-04-03T08:25:01;100771.94;;;15.97;94.32
51297;BME280;37380;45.186;9.792;2023-04-03T08:27:29;100811.50;;;15.44;98.48
51297;BME280;37380;45.186;9.792;2023-04-03T08:29:56;100833.28;;;15.87;98.77
51297;BME280;37380;45.186;9.792;2023-04-03T08:32:24;100789.94;;;16.28;95.81
51297;BME280;37380;45.186;9.792;2023-04-03T08:34:51;100822.19;;;16.07;97.33
51297;BME280;37380;45.186;9.792;2023-04-03T08:37:18;100760.47;;;15.93;100.00
51297;BME280;37380;45.186;9.792;2023-04-03T08:39:45;100828.69;;;17.06;91.45
51297;BME280;37380;45.186;9.792;2023-04-03T08:42:34;100832.28;;;17.14;92.11
51297;BME280;37380;45.186;9.792;2023-04-03T08:45:48;100830.00;;;16.67;91.35
51297;BME280;37380;45.186;9.792;2023-04-03T08:48:43;100812.47;;;16.05;96.46
51297;BME280;37380;45.186;9.792;2023-04-03T08:51:14;100790.97;;;15.74;94.57
51297;BME280;37380;45.186;9.792;2023-04-03T08:54:27;100787.22;;;15.61;95.20
51297;BME280;37380;45.186;9.792;2023-04-03T09:00:14;100804.19;;;15.79;95.30
51297;BME280;37380;45.186;9.792;2023-04-03T09:02:48;100699.72;;;15.22;95.80
51297;BME280;37380;45.186;9.792;2023-04-03T09:05:41;100742.91;;;14.83;98.34
51297;BME280;37380;45.186;9.792;2023-04-03T09:08:14;100829.91;;;15.95;94.03
51297;BME280;37380;45.186;9.792;2023-04-03T09:10:45;100791.81;;;16.37;90.95
51297;BME280;37380;45.186;9.792;2023-04-03T09:16:14;100731.09;;;15.67;91.23
51297;BME280;37380;45.186;9.792;2023-04-03T09:18:50;100827.28;;;16.64;91.36
51297;BME280;37380;45.186;9.792;2023-04-03T09:21:30;100768.16;;;15.22;95.48
51297;BME280;37380;45.186;9.792;2023-04-03T09:23:59;100810.03;;;15.59;98.06
51297;BME280;37380;45.186;9.792;2023-04-03T09:29:06;100764.91;;;15.96;95.85
51297;BME280;37380;45.186;9.792;2023-04-03T09:31:43;100798.22;;;15.89;97.96
51297;BME280;37380;45.186;9.792;2023-04-03T09:34:24;100815.44;;;16.28;98.12
51297;BME280;37380;45.186;9.792;2023-04-03T09:36:55;100773.81;;;16.05;95.24
51297;BME280;37380;45.186;9.792;2023-04-03T09:39:28;100807.53;;;17.03;92.31
51297;BME280;37380;45.186;9.792;2023-04-03T09:42:14;100801.69;;;16.53;90.25
51297;BME280;37380;45.186;9.792;2023-04-03T09:45:31;100800.72;;;17.26;86.88
51297;BME280;37380;45.186;9.792;2023-04-03T09:48:25;100718.22;;;17.64;82.99
51297;BME280;37380;45.186;9.792;2023-04-03T09:50:57;100804.81;;;18.02;83.18
51297;BME280;37380;45.186;9.792;2023-04-03T09:53:36;100800.88;;;16.59;89.66
51297;BME280;37380;45.186;9.792;2023-04-03T09:56:30;100778.34;;;16.87;85.94
51297;BME280;37380;45.186;9.792;2023-04-03T10:01:29;100791.94;;;17.30;82.51
51297;BME280;37380;45.186;9.792;2023-04-03T10:06:41;100781.06;;;18.08;79.78
51297;BME280;37380;45.186;9.792;2023-04-03T10:09:36;100771.50;;;18.44;79.37
51297;BME280;37380;45.186;9.792;2023-04-03T10:12:10;100785.53;;;18.21;78.54
51297;BME280;37380;45.186;9.792;2023-04-03T10:14:41;100776.00;;;18.65;79.24
51297;BME280;37380;45.186;9.792;2023-04-03T10:28:31;100771.72;;;19.20;72.72
51297;BME280;37380;45.186;9.792;2023-04-03T10:31:14;100749.47;;;18.46;73.71
51297;BME280;37380;45.186;9.792;2023-04-03T10:39:39;100742.47;;;18.65;73.88
51297;BME280;37380;45.186;9.792;2023-04-03T10:42:39;100748.63;;;18.64;75.73
51297;BME280;37380;45.186;9.792;2023-04-03T10:56:57;100731.06;;;19.48;66.37
51297;BME280;37380;45.186;9.792;2023-04-03T11:00:15;100676.25;;;19.60;64.57
51297;BME280;37380;45.186;9.792;2023-04-03T11:02:52;100716.31;;;20.97;65.55
51297;BME280;37380;45.186;9.792;2023-04-03T11:05:42;100728.09;;;20.49;60.83
51297;BME280;37380;45.186;9.792;2023-04-03T11:08:33;100732.84;;;19.13;67.89
51297;BME280;37380;45.186;9.792;2023-04-03T11:11:19;100726.66;;;19.07;66.32
51297;BME280;37380;45.186;9.792;2023-04-03T11:14:05;100708.94;;;18.58;68.74
51297;BME280;37380;45.186;9.792;2023-04-03T11:16:40;100699.13;;;18.16;70.94
51297;BME280;37380;45.186;9.792;2023-04-03T11:19:25;100698.44;;;19.03;67.25
51297;BME280;37380;45.186;9.792;2023-04-03T11:22:09;100704.44;;;20.07;63.73
51297;BME280;37380;45.186;9.792;2023-04-03T11:24:39;100683.34;;;19.66;65.32
51297;BME280;37380;45.186;9.792;2023-04-03T11:27:17;100661.25;;;18.41;64.93
51297;BME280;37380;45.186;9.792;2023-04-03T11:29:50;100650.78;;;18.73;66.78
51297;BME280;37380;45.186;9.792;2023-04-03T11:32:47;100666.34;;;17.80;73.45
51297;BME280;37380;45.186;9.792;2023-04-03T11:35:16;100616.41;;;16.78;74.57
51297;BME280;37380;45.186;9.792;2023-04-03T11:37:48;100687.38;;;17.61;75.23
51297;BME280;37380;45.186;9.792;2023-04-03T11:40:31;100678.38;;;17.26;75.49
51297;BME280;37380;45.186;9.792;2023-04-03T11:43:40;100684.91;;;17.91;71.54
51297;BME280;37380;45.186;9.792;2023-04-03T11:46:08;100659.47;;;18.16;69.10
51297;BME280;37380;45.186;9.792;2023-04-03T11:48:43;100672.78;;;19.44;66.01
51297;BME280;37380;45.186;9.792;2023-04-03T11:53:54;100596.91;;;19.11;63.86
51297;BME280;37380;45.186;9.792;2023-04-03T11:56:55;100611.88;;;18.29;68.30
51297;BME280;37380;45.186;9.792;2023-04-03T11:59:49;100603.78;;;19.77;63.94
51297;BME280;37380;45.186;9.792;2023-04-03T12:02:37;100637.50;;;19.10;62.78
51297;BME280;37380;45.186;9.792;2023-04-03T12:05:28;100601.34;;;18.57;62.59
51297;BME280;37380;45.186;9.792;2023-04-03T12:08:30;100656.91;;;18.54;66.99
51297;BME280;37380;45.186;9.792;2023-04-03T12:14:01;100653.19;;;17.84;73.64
51297;BME280;37380;45.186;9.792;2023-04-03T12:19:37;100651.66;;;18.94;70.59
51297;BME280;37380;45.186;9.792;2023-04-03T12:22:16;100639.25;;;18.42;71.70
51297;BME280;37380;45.186;9.792;2023-04-03T12:24:45;100579.28;;;18.84;70.45
51297;BME280;37380;45.186;9.792;2023-04-03T12:27:43;100641.94;;;19.17;68.47
51297;BME280;37380;45.186;9.792;2023-04-03T12:30:27;100635.72;;;18.32;69.43
51297;BME280;37380;45.186;9.792;2023-04-03T12:33:13;100572.16;;;17.96;68.44
51297;BME280;37380;45.186;9.792;2023-04-03T12:44:18;100627.06;;;16.91;74.52
51297;BME280;37380;45.186;9.792;2023-04-03T12:46:50;100629.06;;;16.22;76.15
51297;BME280;37380;45.186;9.792;2023-04-03T12:49:39;100543.28;;;16.66;71.61
51297;BME280;37380;45.186;9.792;2023-04-03T12:52:40;100616.75;;;17.27;69.16
51297;BME280;37380;45.186;9.792;2023-04-03T12:55:17;100636.25;;;17.53;69.52
51297;BME280;37380;45.186;9.792;2023-04-03T12:58:24;100618.91;;;18.20;65.07
51297;BME280;37380;45.186;9.792;2023-04-03T13:01:22;100619.75;;;18.02;65.32
51297;BME280;37380;45.186;9.792;2023-04-03T13:03:56;100568.13;;;16.91;61.81
51297;BME280;37380;45.186;9.792;2023-04-03T13:08:56;100561.34;;;17.31;63.07
51297;BME280;37380;45.186;9.792;2023-04-03T13:11:36;100603.75;;;17.63;59.94
51297;BME280;37380;45.186;9.792;2023-04-03T13:14:38;100575.78;;;16.59;60.51
51297;BME280;37380;45.186;9.792;2023-04-03T13:17:41;100615.97;;;17.48;61.46
51297;BME280;37380;45.186;9.792;2023-04-03T13:20:43;100591.31;;;17.39;59.61
51297;BME280;37380;45.186;9.792;2023-04-03T13:23:39;100608.03;;;17.37;59.66
51297;BME280;37380;45.186;9.792;2023-04-03T13:26:09;100545.00;;;16.61;62.09
51297;BME280;37380;45.186;9.792;2023-04-03T13:28:39;100502.69;;;16.45;63.50
51297;BME280;37380;45.186;9.792;2023-04-03T13:34:07;100557.97;;;16.35;71.07
51297;BME280;37380;45.186;9.792;2023-04-03T13:36:45;100587.06;;;16.42;67.54
51297;BME280;37380;45.186;9.792;2023-04-03T13:41:42;100494.28;;;15.87;68.25
51297;BME280;37380;45.186;9.792;2023-04-03T13:47:22;100515.38;;;15.86;66.43
51297;BME280;37380;45.186;9.792;2023-04-03T13:50:03;100535.03;;;16.21;66.62
51297;BME280;37380;45.186;9.792;2023-04-03T13:53:13;100566.53;;;16.11;65.91
51297;BME280;37380;45.186;9.792;2023-04-03T13:56:24;100507.72;;;16.13;64.08
51297;BME280;37380;45.186;9.792;2023-04-03T14:04:27;100585.44;;;16.57;63.17
51297;BME280;37380;45.186;9.792;2023-04-03T14:06:55;100572.34;;;16.67;59.73
51297;BME280;37380;45.186;9.792;2023-04-03T14:09:23;100592.66;;;16.76;59.87
51297;BME280;37380;45.186;9.792;2023-04-03T14:12:05;100490.25;;;16.24;59.72
51297;BME280;37380;45.186;9.792;2023-04-03T14:15:20;100519.34;;;16.35;59.38
51297;BME280;37380;45.186;9.792;2023-04-03T14:17:58;100519.28;;;16.29;59.03
51297;BME280;37380;45.186;9.792;2023-04-03T14:20:54;100508.59;;;16.14;60.12
51297;BME280;37380;45.186;9.792;2023-04-03T14:23:48;100559.75;;;16.36;59.50
51297;BME280;37380;45.186;9.792;2023-04-03T14:26:20;100557.13;;;16.37;60.47
51297;BME280;37380;45.186;9.792;2023-04-03T14:28:50;100480.13;;;15.74;60.46
51297;BME280;37380;45.186;9.792;2023-04-03T14:31:17;100481.59;;;15.52;62.19
51297;BME280;37380;45.186;9.792;2023-04-03T14:33:45;100558.94;;;16.41;62.19
51297;BME280;37380;45.186;9.792;2023-04-03T14:38:45;100552.56;;;16.15;62.56
51297;BME280;37380;45.186;9.792;2023-04-03T14:41:14;100547.31;;;16.18;62.33
51297;BME280;37380;45.186;9.792;2023-04-03T14:43:50;100557.59;;;15.93;63.15
51297;BME280;37380;45.186;9.792;2023-04-03T14:46:44;100557.06;;;16.29;62.92
51297;BME280;37380;45.186;9.792;2023-04-03T14:49:29;100457.03;;;15.52;61.78
51297;BME280;37380;45.186;9.792;2023-04-03T14:51:57;100469.53;;;15.68;60.86
51297;BME280;37380;45.186;9.792;2023-04-03T14:54:31;100563.91;;;16.11;60.13
51297;BME280;37380;45.186;9.792;2023-04-03T14:57:32;100552.91;;;15.68;61.24
51297;BME280;37380;45.186;9.792;2023-04-03T15:00:26;100558.31;;;15.77;62.35